createdAt,value
2023-05-08T00:01:24.594Z,8.43
2023-05-08T00:03:52.077Z,9.13
2023-05-08T00:06:18.718Z,6.90
2023-05-08T00:08:45.435Z,7.82
2023-05-08T00:11:11.808Z,8.32
2023-05-08T00:13:38.336Z,9.20
2023-05-08T00:16:04.910Z,8.77
2023-05-08T00:18:31.421Z,9.52
2023-05-08T00:20:57.879Z,10.00
2023-05-08T00:23:24.494Z,9.23
2023-05-08T00:25:51.062Z,8.00
2023-05-08T00:28:17.529Z,8.07
2023-05-08T00:30:44.029Z,7.57
2023-05-08T00:33:11.554Z,9.20
2023-05-08T00:35:38.355Z,8.35
2023-05-08T00:38:04.890Z,8.13
2023-05-08T00:40:31.407Z,8.85
2023-05-08T00:42:57.816Z,8.55
2023-05-08T00:45:24.608Z,9.30
2023-05-08T00:47:51.517Z,9.60
2023-05-08T00:50:18.373Z,9.45
2023-05-08T00:52:46.468Z,10.77
2023-05-08T00:55:12.911Z,10.15
2023-05-08T00:57:39.672Z,9.65
2023-05-08T01:00:07.586Z,10.02
2023-05-08T01:02:35.270Z,8.88
2023-05-08T01:05:03.599Z,9.20
2023-05-08T01:07:30.052Z,9.32
2023-05-08T01:09:56.510Z,9.00
2023-05-08T01:12:47.554Z,10.48
2023-05-08T01:15:39.200Z,9.93
2023-05-08T01:18:15.269Z,11.27
2023-05-08T01:20:59.545Z,10.95
2023-05-08T01:23:44.082Z,9.10
2023-05-08T01:26:37.960Z,9.82
2023-05-08T01:32:11.323Z,10.38
2023-05-08T01:34:49.939Z,9.48
2023-05-08T01:37:25.657Z,10.75
2023-05-08T01:40:02.578Z,9.82
2023-05-08T01:42:28.907Z,9.75
2023-05-08T01:45:00.727Z,9.02
2023-05-08T01:47:31.123Z,8.95
2023-05-08T01:50:08.821Z,9.65
2023-05-08T01:52:43.118Z,11.00
2023-05-08T01:55:12.511Z,11.27
2023-05-08T01:57:50.968Z,10.13
2023-05-08T02:00:21.068Z,11.90
2023-05-08T02:02:51.120Z,10.40
2023-05-08T02:05:20.698Z,10.32
2023-05-08T02:07:49.040Z,12.25
2023-05-08T02:10:17.284Z,9.45
2023-05-08T02:12:45.220Z,10.02
2023-05-08T02:15:14.702Z,9.10
2023-05-08T02:17:42.287Z,12.63
2023-05-08T02:20:14.736Z,10.50
2023-05-08T02:22:45.992Z,9.35
2023-05-08T02:27:46.311Z,10.73
2023-05-08T02:30:15.454Z,11.48
2023-05-08T02:32:46.754Z,9.60
2023-05-08T02:35:16.238Z,10.48
2023-05-08T02:37:50.517Z,9.23
2023-05-08T02:40:18.692Z,9.52
2023-05-08T02:42:46.806Z,10.95
2023-05-08T02:45:14.534Z,11.18
2023-05-08T02:47:53.948Z,9.13
2023-05-08T02:50:26.606Z,8.90
2023-05-08T02:53:00.978Z,9.50
2023-05-08T02:55:48.550Z,10.63
2023-05-08T02:58:18.947Z,10.60
2023-05-08T03:00:52.814Z,8.68
2023-05-08T03:03:30.252Z,10.30
2023-05-08T03:05:59.064Z,11.05
2023-05-08T03:08:35.127Z,9.73
2023-05-08T03:11:08.399Z,10.18
2023-05-08T03:13:38.686Z,9.68
2023-05-08T03:16:08.235Z,10.95
2023-05-08T03:18:45.140Z,10.45
2023-05-08T03:21:15.052Z,9.65
2023-05-08T03:23:43.017Z,10.88
2023-05-08T03:26:10.576Z,11.68
2023-05-08T03:28:39.116Z,10.35
2023-05-08T03:31:06.889Z,12.75
2023-05-08T03:33:37.135Z,11.02
2023-05-08T03:36:03.743Z,10.20
2023-05-08T03:38:30.283Z,10.23
2023-05-08T03:40:56.686Z,9.80
2023-05-08T03:43:23.692Z,10.82
2023-05-08T03:45:51.142Z,9.30
2023-05-08T03:48:19.114Z,9.95
2023-05-08T03:50:46.244Z,11.25
2023-05-08T03:53:12.659Z,9.88
2023-05-08T03:55:39.384Z,9.13
2023-05-08T03:58:17.667Z,8.88
2023-05-08T04:01:01.613Z,11.48
2023-05-08T04:03:43.850Z,11.65
2023-05-08T04:06:42.115Z,14.05
2023-05-08T04:09:24.786Z,10.77
2023-05-08T04:12:09.623Z,14.00
2023-05-08T04:14:43.863Z,9.63
2023-05-08T04:17:14.394Z,11.30
2023-05-08T04:19:46.195Z,10.02
2023-05-08T04:22:13.445Z,10.35
2023-05-08T04:24:44.444Z,10.07
2023-05-08T04:27:12.726Z,10.48
2023-05-08T04:29:39.901Z,10.20
2023-05-08T04:32:07.154Z,11.50
2023-05-08T04:34:33.885Z,12.00
2023-05-08T04:37:00.926Z,8.98
2023-05-08T04:39:27.292Z,9.75
2023-05-08T04:41:55.662Z,15.85
2023-05-08T04:44:22.075Z,10.52
2023-05-08T04:46:50.057Z,11.45
2023-05-08T04:49:16.640Z,11.10
2023-05-08T04:51:43.065Z,10.10
2023-05-08T04:54:09.598Z,10.88
2023-05-08T04:56:36.165Z,11.05
2023-05-08T04:59:02.699Z,11.15
2023-05-08T05:01:29.179Z,9.85
2023-05-08T05:03:55.743Z,9.82
2023-05-08T05:06:22.312Z,11.48
2023-05-08T05:08:48.746Z,9.82
2023-05-08T05:11:15.190Z,9.75
2023-05-08T05:13:41.572Z,10.18
2023-05-08T05:16:08.049Z,10.05
2023-05-08T05:18:34.509Z,10.35
2023-05-08T05:21:01.056Z,10.77
2023-05-08T05:23:27.568Z,10.27
2023-05-08T05:25:54.084Z,12.27
2023-05-08T05:28:20.465Z,9.85
2023-05-08T05:30:48.267Z,9.65
2023-05-08T05:33:14.777Z,11.30
2023-05-08T05:35:41.210Z,12.20
2023-05-08T05:38:07.775Z,11.23
2023-05-08T05:40:34.364Z,9.77
2023-05-08T05:43:01.759Z,10.95
2023-05-08T05:45:28.549Z,11.40
2023-05-08T05:47:56.062Z,12.05
2023-05-08T05:50:22.775Z,9.57
2023-05-08T05:52:49.255Z,10.45
2023-05-08T05:55:16.184Z,10.35
2023-05-08T05:57:42.639Z,9.88
2023-05-08T06:00:09.281Z,14.13
2023-05-08T06:02:36.779Z,9.93
2023-05-08T06:05:04.928Z,13.52
2023-05-08T06:07:31.283Z,9.50
2023-05-08T06:09:57.803Z,9.07
2023-05-08T06:12:24.429Z,10.60
2023-05-08T06:14:52.179Z,7.75
2023-05-08T06:17:19.238Z,8.70
2023-05-08T06:19:50.327Z,10.65
2023-05-08T06:22:21.673Z,9.75
2023-05-08T06:24:48.369Z,11.63
2023-05-08T06:27:14.935Z,8.93
2023-05-08T06:29:41.405Z,11.55
2023-05-08T06:32:07.806Z,11.23
2023-05-08T06:34:34.463Z,10.18
2023-05-08T06:37:00.839Z,10.95
2023-05-08T06:39:27.345Z,10.80
2023-05-08T06:41:53.808Z,10.82
2023-05-08T06:44:20.286Z,10.65
2023-05-08T06:46:46.896Z,10.73
2023-05-08T06:49:13.514Z,12.15
2023-05-08T06:51:40.098Z,10.13
2023-05-08T06:54:08.266Z,12.70
2023-05-08T06:56:35.621Z,8.73
2023-05-08T06:59:08.261Z,10.52
2023-05-08T07:01:35.728Z,10.55
2023-05-08T07:04:02.221Z,10.32
2023-05-08T07:06:28.854Z,10.57
2023-05-08T07:08:55.392Z,9.20
2023-05-08T07:11:22.010Z,9.68
2023-05-08T07:13:48.925Z,10.80
2023-05-08T07:16:16.323Z,8.95
2023-05-08T07:18:43.644Z,11.07
2023-05-08T07:21:10.615Z,11.32
2023-05-08T07:23:37.086Z,9.20
2023-05-08T07:26:04.128Z,11.38
2023-05-08T07:28:30.717Z,11.57
2023-05-08T07:30:57.325Z,8.70
2023-05-08T07:33:23.771Z,8.75
2023-05-08T07:35:50.238Z,9.90
2023-05-08T07:38:16.663Z,10.20
2023-05-08T07:40:43.068Z,10.35
2023-05-08T07:43:10.754Z,10.57
2023-05-08T07:45:37.198Z,10.80
2023-05-08T07:48:03.889Z,9.80
2023-05-08T07:50:30.488Z,10.13
2023-05-08T07:52:57.122Z,10.50
2023-05-08T07:55:23.563Z,11.18
2023-05-08T07:57:49.990Z,11.05
2023-05-08T08:00:17.174Z,9.88
2023-05-08T08:02:44.868Z,9.43
2023-05-08T08:05:12.329Z,10.82
2023-05-08T08:07:39.138Z,10.02
2023-05-08T08:10:06.480Z,10.63
2023-05-08T08:12:33.144Z,10.07
2023-05-08T08:14:59.554Z,10.15
2023-05-08T08:17:28.535Z,10.02
2023-05-08T08:19:55.539Z,10.57
2023-05-08T08:22:26.092Z,9.60
2023-05-08T08:24:55.516Z,11.05
2023-05-08T08:27:22.708Z,9.23
2023-05-08T08:29:51.148Z,9.40
2023-05-08T08:32:19.304Z,10.80
2023-05-08T08:34:45.750Z,8.75
2023-05-08T08:37:14.956Z,13.10
2023-05-08T08:39:41.746Z,10.07
2023-05-08T08:42:08.345Z,10.88
2023-05-08T08:44:36.109Z,9.82
2023-05-08T08:47:05.111Z,12.40
2023-05-08T08:49:34.957Z,10.75
2023-05-08T08:52:15.604Z,11.15
2023-05-08T08:54:44.320Z,10.60
2023-05-08T08:57:12.881Z,14.38
2023-05-08T08:59:40.571Z,11.20
2023-05-08T09:02:11.726Z,10.85
2023-05-08T09:04:38.792Z,12.38
2023-05-08T09:07:08.448Z,10.50
2023-05-08T09:09:37.700Z,12.18
2023-05-08T09:12:04.593Z,10.93
2023-05-08T09:14:31.083Z,11.43
2023-05-08T09:16:57.806Z,10.90
2023-05-08T09:19:28.756Z,10.45
2023-05-08T09:21:59.167Z,13.32
2023-05-08T09:24:29.062Z,10.85
2023-05-08T09:26:56.762Z,11.88
2023-05-08T09:29:23.101Z,9.73
2023-05-08T09:31:51.131Z,10.80
2023-05-08T09:34:28.458Z,10.82
2023-05-08T09:36:56.417Z,10.63
2023-05-08T09:39:25.975Z,10.18
2023-05-08T09:42:00.666Z,11.63
2023-05-08T09:44:27.210Z,12.70
2023-05-08T09:47:15.630Z,10.23
2023-05-08T09:50:08.481Z,9.32
2023-05-08T09:52:36.647Z,10.63
2023-05-08T09:55:08.677Z,10.52
2023-05-08T09:57:39.913Z,10.00
2023-05-08T10:00:13.733Z,10.20
2023-05-08T10:02:42.515Z,9.52
2023-05-08T10:05:31.124Z,11.20
2023-05-08T10:08:21.865Z,8.27
2023-05-08T10:10:48.484Z,10.35
2023-05-08T10:13:15.077Z,9.93
2023-05-08T10:15:44.855Z,11.38
2023-05-08T10:18:12.176Z,10.15
2023-05-08T10:20:44.349Z,11.43
2023-05-08T10:23:17.028Z,10.75
2023-05-08T10:25:46.457Z,10.40
2023-05-08T10:28:32.025Z,9.70
2023-05-08T10:31:05.400Z,10.60
2023-05-08T10:33:34.654Z,10.65
2023-05-08T10:36:01.610Z,9.68
2023-05-08T10:38:28.208Z,11.50
2023-05-08T10:40:58.120Z,9.05
2023-05-08T10:43:25.088Z,9.45
2023-05-08T10:45:53.762Z,9.52
2023-05-08T10:48:47.148Z,8.80
2023-05-08T10:51:27.980Z,9.25
2023-05-08T10:54:01.418Z,7.57
2023-05-08T10:56:29.179Z,9.80
2023-05-08T10:58:57.678Z,8.68
2023-05-08T11:01:25.730Z,8.65
2023-05-08T11:03:52.521Z,9.10
2023-05-08T11:06:49.203Z,8.32
2023-05-08T11:09:43.309Z,7.35
2023-05-08T11:12:30.573Z,7.05
2023-05-08T11:15:06.050Z,8.05
2023-05-08T11:17:33.455Z,8.15
2023-05-08T11:20:03.369Z,8.00
2023-05-08T11:22:33.970Z,7.57
2023-05-08T11:25:05.265Z,7.65
2023-05-08T11:27:47.977Z,7.18
2023-05-08T11:30:26.746Z,9.10
2023-05-08T11:33:13.411Z,7.28
2023-05-08T11:35:52.116Z,7.22
2023-05-08T11:38:21.589Z,9.30
2023-05-08T11:40:58.319Z,5.63
2023-05-08T11:43:34.308Z,5.95
2023-05-08T11:46:05.729Z,5.55
2023-05-08T11:48:33.385Z,6.53
2023-05-08T11:51:00.803Z,5.70
2023-05-08T11:53:27.833Z,5.90
2023-05-08T11:55:55.100Z,6.43
2023-05-08T11:58:21.838Z,5.82
2023-05-08T12:00:49.458Z,7.38
2023-05-08T12:03:21.900Z,10.27
2023-05-08T12:05:50.147Z,7.47
2023-05-08T12:08:18.025Z,7.40
2023-05-08T12:10:52.127Z,8.70
2023-05-08T12:13:20.485Z,6.50
2023-05-08T12:15:48.793Z,7.97
2023-05-08T12:18:16.637Z,7.75
2023-05-08T12:20:44.173Z,6.63
2023-05-08T12:23:10.796Z,7.38
2023-05-08T12:25:40.695Z,6.50
2023-05-08T12:28:08.686Z,5.32
2023-05-08T12:30:35.356Z,4.75
2023-05-08T12:33:03.183Z,5.95
2023-05-08T12:35:30.135Z,7.93
2023-05-08T12:38:07.571Z,5.38
2023-05-08T12:40:39.918Z,4.43
2023-05-08T12:43:06.475Z,5.00
2023-05-08T12:45:34.661Z,4.45
2023-05-08T12:48:06.093Z,5.57
2023-05-08T12:50:40.495Z,5.88
2023-05-08T12:53:13.432Z,4.97
2023-05-08T12:55:43.324Z,5.53
2023-05-08T12:58:15.988Z,4.82
2023-05-08T13:00:43.950Z,5.57
2023-05-08T13:03:12.518Z,6.15
2023-05-08T13:05:44.190Z,6.40
2023-05-08T13:08:11.577Z,11.68
2023-05-08T13:10:52.187Z,4.68
2023-05-08T13:13:20.976Z,5.20
2023-05-08T13:15:49.150Z,4.72
2023-05-08T13:18:17.088Z,5.30
2023-05-08T13:20:44.075Z,5.00
2023-05-08T13:23:10.980Z,4.72
2023-05-08T13:25:38.165Z,4.63
2023-05-08T13:28:05.801Z,5.13
2023-05-08T13:30:32.466Z,5.63
2023-05-08T13:32:59.076Z,5.68
2023-05-08T13:35:25.724Z,4.90
2023-05-08T13:37:52.220Z,4.70
2023-05-08T13:40:18.869Z,4.65
2023-05-08T13:42:45.411Z,5.32
2023-05-08T13:45:14.629Z,5.28
2023-05-08T13:47:42.948Z,4.32
2023-05-08T13:50:10.867Z,4.35
2023-05-08T13:52:41.345Z,6.07
2023-05-08T13:55:10.274Z,4.57
2023-05-08T13:57:36.918Z,6.88
2023-05-08T14:00:07.565Z,5.30
2023-05-08T14:02:34.070Z,5.72
2023-05-08T14:05:00.948Z,5.35
2023-05-08T14:07:28.109Z,5.05
2023-05-08T14:09:54.627Z,9.05
2023-05-08T14:12:21.157Z,8.10
2023-05-08T14:14:47.692Z,4.60
2023-05-08T14:17:14.195Z,4.50
2023-05-08T14:19:40.733Z,5.38
2023-05-08T14:22:07.456Z,5.57
2023-05-08T14:24:33.967Z,5.75
2023-05-08T14:27:01.963Z,5.57
2023-05-08T14:29:28.366Z,4.47
2023-05-08T14:31:54.968Z,4.70
2023-05-08T14:34:21.585Z,6.45
2023-05-08T14:36:48.046Z,8.52
2023-05-08T14:39:14.535Z,5.43
2023-05-08T14:41:41.414Z,7.57
2023-05-08T14:44:09.883Z,6.18
2023-05-08T14:46:40.028Z,7.55
2023-05-08T14:49:19.311Z,5.18
2023-05-08T14:51:52.482Z,7.20
2023-05-08T14:54:19.093Z,7.50
2023-05-08T14:56:47.762Z,6.07
2023-05-08T14:59:14.539Z,5.38
2023-05-08T15:01:42.985Z,6.72
2023-05-08T15:04:12.468Z,5.47
2023-05-08T15:06:45.835Z,12.80
2023-05-08T15:09:13.175Z,8.13
2023-05-08T15:11:40.342Z,5.90
2023-05-08T15:14:07.219Z,5.88
2023-05-08T15:16:34.093Z,5.20
2023-05-08T15:19:00.779Z,7.60
2023-05-08T15:21:27.437Z,8.00
2023-05-08T15:23:55.097Z,5.50
2023-05-08T15:26:22.711Z,5.85
2023-05-08T15:28:49.358Z,5.82
2023-05-08T15:31:16.174Z,5.22
2023-05-08T15:33:44.977Z,6.22
2023-05-08T15:36:12.757Z,5.03
2023-05-08T15:38:40.063Z,4.97
2023-05-08T15:41:07.040Z,5.50
2023-05-08T15:43:33.573Z,5.40
2023-05-08T15:45:59.978Z,5.32
2023-05-08T15:48:26.480Z,4.95
2023-05-08T15:50:53.025Z,4.50
2023-05-08T15:53:19.413Z,4.68
2023-05-08T15:55:45.795Z,4.68
2023-05-08T15:58:12.316Z,5.80
2023-05-08T16:00:44.797Z,6.15
2023-05-08T16:03:12.212Z,4.28
2023-05-08T16:05:39.560Z,5.38
2023-05-08T16:08:07.531Z,4.82
2023-05-08T16:10:34.319Z,6.07
2023-05-08T16:13:00.952Z,4.45
2023-05-08T16:15:27.435Z,5.35
2023-05-08T16:17:54.039Z,4.32
2023-05-08T16:20:20.525Z,5.80
2023-05-08T16:22:47.024Z,4.15
2023-05-08T16:25:13.677Z,4.03
2023-05-08T16:27:40.666Z,5.28
2023-05-08T16:30:07.818Z,5.45
2023-05-08T16:32:34.296Z,5.00
2023-05-08T16:35:00.962Z,5.28
2023-05-08T16:37:27.450Z,5.55
2023-05-08T16:39:53.878Z,4.85
2023-05-08T16:42:20.878Z,5.97
2023-05-08T16:44:47.474Z,5.38
2023-05-08T16:47:13.960Z,10.13
2023-05-08T16:49:40.654Z,8.60
2023-05-08T16:52:07.171Z,8.40
2023-05-08T16:54:33.846Z,8.90
2023-05-08T16:57:00.351Z,5.30
2023-05-08T16:59:26.927Z,6.10
2023-05-08T17:01:53.583Z,5.90
2023-05-08T17:04:20.065Z,4.75
2023-05-08T17:06:46.473Z,4.30
2023-05-08T17:09:12.891Z,4.38
2023-05-08T17:11:39.464Z,5.50
2023-05-08T17:14:05.883Z,6.85
2023-05-08T17:16:32.387Z,4.28
2023-05-08T17:18:59.728Z,5.40
2023-05-08T17:21:26.238Z,5.35
2023-05-08T17:23:52.750Z,4.63
2023-05-08T17:26:19.120Z,5.22
2023-05-08T17:28:45.826Z,4.88
2023-05-08T17:31:13.200Z,5.47
2023-05-08T17:33:39.728Z,4.60
2023-05-08T17:36:06.482Z,4.60
2023-05-08T17:38:34.260Z,4.57
2023-05-08T17:41:00.748Z,3.30
2023-05-08T17:43:28.571Z,4.70
2023-05-08T17:45:55.121Z,5.85
2023-05-08T17:48:21.598Z,4.80
2023-05-08T17:50:48.049Z,5.32
2023-05-08T17:53:14.448Z,5.28
2023-05-08T17:55:40.967Z,6.70
2023-05-08T17:58:07.503Z,3.88
2023-05-08T18:00:33.972Z,3.97
2023-05-08T18:03:00.454Z,4.32
2023-05-08T18:05:27.059Z,4.40
2023-05-08T18:07:53.966Z,4.18
2023-05-08T18:10:21.055Z,5.22
2023-05-08T18:12:47.494Z,4.13
2023-05-08T18:15:14.099Z,4.78
2023-05-08T18:17:40.999Z,3.92
2023-05-08T18:20:09.264Z,4.65
2023-05-08T18:22:35.905Z,4.07
2023-05-08T18:25:03.202Z,5.05
2023-05-08T18:27:29.758Z,4.18
2023-05-08T18:29:56.316Z,3.65
2023-05-08T18:32:22.975Z,3.80
2023-05-08T18:34:49.424Z,4.18
2023-05-08T18:37:15.922Z,4.70
2023-05-08T18:39:42.393Z,4.38
2023-05-08T18:42:08.845Z,3.45
2023-05-08T18:44:35.376Z,3.30
2023-05-08T18:47:02.025Z,3.42
2023-05-08T18:49:29.275Z,3.97
2023-05-08T18:51:55.828Z,4.57
2023-05-08T18:54:26.309Z,4.00
2023-05-08T18:56:54.037Z,3.20
2023-05-08T18:59:21.371Z,3.70
2023-05-08T19:01:50.386Z,3.08
2023-05-08T19:04:16.827Z,3.15
2023-05-08T19:06:43.781Z,4.60
2023-05-08T19:09:10.225Z,2.60
2023-05-08T19:11:36.662Z,4.28
2023-05-08T19:14:03.487Z,2.80
2023-05-08T19:16:30.035Z,3.85
2023-05-08T19:18:56.598Z,3.45
2023-05-08T19:21:23.010Z,3.92
2023-05-08T19:23:49.478Z,3.92
2023-05-08T19:26:15.988Z,3.78
2023-05-08T19:28:42.435Z,3.80
2023-05-08T19:31:08.991Z,3.58
2023-05-08T19:33:35.443Z,3.47
2023-05-08T19:36:01.842Z,3.22
2023-05-08T19:38:28.295Z,3.53
2023-05-08T19:40:57.500Z,4.00
2023-05-08T19:43:25.707Z,3.08
2023-05-08T19:45:52.293Z,3.10
2023-05-08T19:48:20.032Z,2.55
2023-05-08T19:50:46.612Z,4.95
2023-05-08T19:53:13.277Z,3.03
2023-05-08T19:55:39.741Z,3.42
2023-05-08T19:58:06.191Z,4.35
2023-05-08T20:00:32.572Z,3.90
2023-05-08T20:02:58.992Z,2.72
2023-05-08T20:05:25.630Z,3.55
2023-05-08T20:07:52.091Z,2.65
2023-05-08T20:10:18.560Z,3.67
2023-05-08T20:12:45.057Z,4.05
2023-05-08T20:15:12.019Z,4.07
2023-05-08T20:17:38.723Z,4.47
2023-05-08T20:20:05.912Z,5.20
2023-05-08T20:22:32.366Z,6.28
2023-05-08T20:24:58.740Z,4.55
2023-05-08T20:27:25.242Z,4.68
2023-05-08T20:29:51.855Z,4.07
2023-05-08T20:32:19.127Z,4.00
2023-05-08T20:34:45.733Z,4.22
2023-05-08T20:37:12.213Z,3.85
2023-05-08T20:39:38.735Z,3.75
2023-05-08T20:42:05.314Z,3.55
2023-05-08T20:44:31.705Z,3.92
2023-05-08T20:46:58.312Z,5.07
2023-05-08T20:49:24.930Z,5.82
2023-05-08T20:51:51.445Z,4.93
2023-05-08T20:54:17.883Z,5.05
2023-05-08T20:56:44.423Z,3.67
2023-05-08T20:59:11.479Z,4.40
2023-05-08T21:01:38.146Z,4.18
2023-05-08T21:04:04.650Z,3.72
2023-05-08T21:06:32.095Z,3.55
2023-05-08T21:08:58.518Z,3.65
2023-05-08T21:11:25.028Z,4.30
2023-05-08T21:13:51.441Z,4.90
2023-05-08T21:16:18.019Z,3.30
2023-05-08T21:18:44.516Z,6.38
2023-05-08T21:21:15.792Z,4.68
2023-05-08T21:23:42.750Z,4.72
2023-05-08T21:26:09.191Z,4.93
2023-05-08T21:28:35.628Z,5.20
2023-05-08T21:31:02.131Z,4.82
2023-05-08T21:33:28.960Z,3.42
2023-05-08T21:35:55.699Z,3.90
2023-05-08T21:38:22.114Z,4.50
2023-05-08T21:40:48.538Z,5.60
2023-05-08T21:43:14.989Z,4.18
2023-05-08T21:45:41.619Z,4.88
2023-05-08T21:48:07.967Z,3.90
2023-05-08T21:50:34.499Z,5.68
2023-05-08T21:53:01.377Z,4.47
2023-05-08T21:55:28.649Z,5.85
2023-05-08T21:57:55.837Z,4.90
2023-05-08T22:00:22.413Z,6.15
2023-05-08T22:02:49.149Z,4.43
2023-05-08T22:05:15.848Z,5.50
2023-05-08T22:07:42.590Z,6.00
2023-05-08T22:10:10.392Z,5.03
2023-05-08T22:12:37.171Z,6.25
2023-05-08T22:15:07.498Z,6.95
2023-05-08T22:17:39.575Z,4.55
2023-05-08T22:20:08.137Z,5.15
2023-05-08T22:22:34.784Z,5.30
2023-05-08T22:25:01.318Z,7.97
2023-05-08T22:27:27.784Z,7.18
2023-05-08T22:29:54.312Z,7.05
2023-05-08T22:32:20.757Z,5.22
2023-05-08T22:34:49.667Z,5.45
2023-05-08T22:37:17.429Z,6.35
2023-05-08T22:39:43.802Z,5.03
2023-05-08T22:42:11.429Z,5.57
2023-05-08T22:44:37.983Z,5.22
2023-05-08T22:47:04.716Z,4.70
2023-05-08T22:49:31.370Z,5.90
2023-05-08T22:51:57.995Z,5.43
2023-05-08T22:54:24.434Z,5.43
2023-05-08T22:56:51.094Z,9.65
2023-05-08T22:59:17.531Z,5.93
2023-05-08T23:01:44.182Z,4.97
2023-05-08T23:04:10.756Z,6.35
2023-05-08T23:06:37.396Z,5.95
2023-05-08T23:09:04.337Z,8.00
2023-05-08T23:11:30.940Z,9.82
2023-05-08T23:13:57.335Z,7.18
2023-05-08T23:16:23.750Z,5.90
2023-05-08T23:18:50.164Z,9.40
2023-05-08T23:21:16.795Z,6.88
2023-05-08T23:23:43.347Z,6.68
2023-05-08T23:26:09.888Z,8.07
2023-05-08T23:28:36.669Z,6.30
2023-05-08T23:31:03.807Z,9.50
2023-05-08T23:33:30.643Z,7.03
2023-05-08T23:35:58.509Z,7.30
2023-05-08T23:38:25.528Z,8.77
2023-05-08T23:40:52.005Z,6.68
2023-05-08T23:43:18.854Z,7.18
2023-05-08T23:45:45.299Z,8.63
2023-05-08T23:48:11.740Z,7.55
2023-05-08T23:50:38.473Z,9.07
2023-05-08T23:53:05.044Z,9.20
2023-05-08T23:55:31.574Z,7.85
2023-05-08T23:57:57.989Z,8.07
